sensor_id;sensor_type;location;lat;lon;timestamp;pressure;altitude;pressure_sealevel;temperature;humidity
63204;BME280;49297;43.210;27.914;2023-03-04T00:00:31;101327.59;;;7.02;78.01
63204;BME280;49297;43.210;27.914;2023-03-04T00:02:57;101319.69;;;7.02;77.89
63204;BME280;49297;43.210;27.914;2023-03-04T00:05:23;101319.69;;;7.02;78.04
63204;BME280;49297;43.210;27.914;2023-03-04T00:07:49;101325.06;;;7.00;77.87
63204;BME280;49297;43.210;27.914;2023-03-04T00:10:14;101320.56;;;7.02;77.76
63204;BME280;49297;43.210;27.914;2023-03-04T00:12:40;101333.72;;;7.02;78.13
63204;BME280;49297;43.210;27.914;2023-03-04T00:15:06;101335.50;;;7.02;77.77
63204;BME280;49297;43.210;27.914;2023-03-04T00:17:33;101333.59;;;7.04;77.57
63204;BME280;49297;43.210;27.914;2023-03-04T00:19:58;101332.03;;;7.01;77.86
63204;BME280;49297;43.210;27.914;2023-03-04T00:22:24;101330.31;;;7.00;77.84
63204;BME280;49297;43.210;27.914;2023-03-04T00:24:50;101335.59;;;7.00;77.83
63204;BME280;49297;43.210;27.914;2023-03-04T00:27:15;101333.72;;;7.02;77.73
63204;BME280;49297;43.210;27.914;2023-03-04T00:29:41;101332.03;;;7.01;77.57
63204;BME280;49297;43.210;27.914;2023-03-04T00:32:07;101332.94;;;7.00;77.78
63204;BME280;49297;43.210;27.914;2023-03-04T00:34:33;101336.47;;;7.01;77.72
63204;BME280;49297;43.210;27.914;2023-03-04T00:36:58;101340.75;;;7.02;77.56
63204;BME280;49297;43.210;27.914;2023-03-04T00:39:29;101342.47;;;7.03;77.72
63204;BME280;49297;43.210;27.914;2023-03-04T00:41:55;101341.63;;;7.02;77.51
63204;BME280;49297;43.210;27.914;2023-03-04T00:44:20;101331.94;;;7.03;78.01
63204;BME280;49297;43.210;27.914;2023-03-04T00:46:46;101336.13;;;7.05;78.21
63204;BME280;49297;43.210;27.914;2023-03-04T00:49:12;101325.59;;;7.05;77.88
63204;BME280;49297;43.210;27.914;2023-03-04T00:51:38;101330.03;;;7.05;77.83
63204;BME280;49297;43.210;27.914;2023-03-04T00:54:03;101318.75;;;7.03;78.34
63204;BME280;49297;43.210;27.914;2023-03-04T00:56:29;101311.06;;;7.00;77.93
63204;BME280;49297;43.210;27.914;2023-03-04T00:58:55;101311.88;;;7.00;78.17
63204;BME280;49297;43.210;27.914;2023-03-04T01:01:21;101318.84;;;7.01;78.08
63204;BME280;49297;43.210;27.914;2023-03-04T01:03:47;101303.91;;;7.02;78.49
63204;BME280;49297;43.210;27.914;2023-03-04T01:06:13;101306.44;;;7.03;78.60
63204;BME280;49297;43.210;27.914;2023-03-04T01:08:39;101302.78;;;7.06;78.64
63204;BME280;49297;43.210;27.914;2023-03-04T01:11:05;101309.81;;;7.05;78.70
63204;BME280;49297;43.210;27.914;2023-03-04T01:13:31;101306.34;;;7.05;78.31
63204;BME280;49297;43.210;27.914;2023-03-04T01:15:57;101307.91;;;7.08;78.45
63204;BME280;49297;43.210;27.914;2023-03-04T01:18:26;101306.97;;;7.09;78.92
63204;BME280;49297;43.210;27.914;2023-03-04T01:20:52;101302.66;;;7.08;78.72
63204;BME280;49297;43.210;27.914;2023-03-04T01:23:17;101307.50;;;7.01;78.53
63204;BME280;49297;43.210;27.914;2023-03-04T01:25:43;101301.69;;;6.96;78.56
63204;BME280;49297;43.210;27.914;2023-03-04T01:28:09;101304.31;;;6.96;78.61
63204;BME280;49297;43.210;27.914;2023-03-04T01:30:36;101302.31;;;6.99;78.70
63204;BME280;49297;43.210;27.914;2023-03-04T01:33:01;101297.69;;;7.03;78.38
63204;BME280;49297;43.210;27.914;2023-03-04T01:35:27;101302.78;;;7.06;78.40
63204;BME280;49297;43.210;27.914;2023-03-04T01:37:53;101295.06;;;7.03;78.52
63204;BME280;49297;43.210;27.914;2023-03-04T01:40:19;101292.94;;;6.95;78.28
63204;BME280;49297;43.210;27.914;2023-03-04T01:42:45;101295.78;;;6.92;77.86
63204;BME280;49297;43.210;27.914;2023-03-04T01:45:16;101287.13;;;6.90;78.34
63204;BME280;49297;43.210;27.914;2023-03-04T01:47:45;101286.91;;;6.93;77.96
63204;BME280;49297;43.210;27.914;2023-03-04T01:50:32;101284.41;;;6.92;78.13
63204;BME280;49297;43.210;27.914;2023-03-04T01:52:59;101288.50;;;6.96;77.76
63204;BME280;49297;43.210;27.914;2023-03-04T01:55:25;101289.25;;;6.98;78.20
63204;BME280;49297;43.210;27.914;2023-03-04T01:57:52;101281.16;;;7.01;77.68
63204;BME280;49297;43.210;27.914;2023-03-04T02:00:31;101268.75;;;7.03;77.88
63204;BME280;49297;43.210;27.914;2023-03-04T02:03:00;101279.91;;;7.07;77.55
63204;BME280;49297;43.210;27.914;2023-03-04T02:05:27;101277.09;;;7.10;77.60
63204;BME280;49297;43.210;27.914;2023-03-04T02:07:55;101274.22;;;7.13;77.83
63204;BME280;49297;43.210;27.914;2023-03-04T02:10:21;101271.41;;;7.16;77.96
63204;BME280;49297;43.210;27.914;2023-03-04T02:12:47;101271.41;;;7.16;77.72
63204;BME280;49297;43.210;27.914;2023-03-04T02:15:14;101273.19;;;7.15;77.51
63204;BME280;49297;43.210;27.914;2023-03-04T02:17:40;101278.38;;;7.17;77.54
63204;BME280;49297;43.210;27.914;2023-03-04T02:20:35;101281.75;;;7.19;77.53
63204;BME280;49297;43.210;27.914;2023-03-04T02:25:44;101262.47;;;7.18;76.98
63204;BME280;49297;43.210;27.914;2023-03-04T02:28:12;101267.94;;;7.15;77.18
63204;BME280;49297;43.210;27.914;2023-03-04T02:30:37;101259.38;;;7.12;77.27
63204;BME280;49297;43.210;27.914;2023-03-04T02:33:03;101269.81;;;7.13;77.26
63204;BME280;49297;43.210;27.914;2023-03-04T02:35:29;101270.75;;;7.12;77.16
63204;BME280;49297;43.210;27.914;2023-03-04T02:37:55;101269.06;;;7.11;77.33
63204;BME280;49297;43.210;27.914;2023-03-04T02:40:25;101272.47;;;7.13;77.36
63204;BME280;49297;43.210;27.914;2023-03-04T02:42:51;101279.19;;;7.17;77.42
63204;BME280;49297;43.210;27.914;2023-03-04T02:47:59;101281.53;;;7.22;76.89
63204;BME280;49297;43.210;27.914;2023-03-04T02:50:26;101283.94;;;7.25;77.45
63204;BME280;49297;43.210;27.914;2023-03-04T02:52:54;101283.94;;;7.25;77.18
63204;BME280;49297;43.210;27.914;2023-03-04T02:55:19;101289.03;;;7.28;77.49
63204;BME280;49297;43.210;27.914;2023-03-04T02:57:45;101292.38;;;7.30;77.07
63204;BME280;49297;43.210;27.914;2023-03-04T03:00:11;101299.38;;;7.31;77.25
63204;BME280;49297;43.210;27.914;2023-03-04T03:02:37;101293.13;;;7.32;76.90
63204;BME280;49297;43.210;27.914;2023-03-04T03:05:03;101305.47;;;7.32;77.68
63204;BME280;49297;43.210;27.914;2023-03-04T03:07:29;101301.25;;;7.29;77.34
63204;BME280;49297;43.210;27.914;2023-03-04T03:09:55;101298.81;;;7.26;77.50
63204;BME280;49297;43.210;27.914;2023-03-04T03:12:20;101292.81;;;7.24;77.58
63204;BME280;49297;43.210;27.914;2023-03-04T03:14:46;101295.34;;;7.26;77.75
63204;BME280;49297;43.210;27.914;2023-03-04T03:17:12;101295.22;;;7.27;77.85
63204;BME280;49297;43.210;27.914;2023-03-04T03:19:38;101298.63;;;7.29;77.77
63204;BME280;49297;43.210;27.914;2023-03-04T03:22:03;101300.28;;;7.30;78.13
63204;BME280;49297;43.210;27.914;2023-03-04T03:24:29;101302.81;;;7.32;77.93
63204;BME280;49297;43.210;27.914;2023-03-04T03:26:55;101301.03;;;7.32;78.11
63204;BME280;49297;43.210;27.914;2023-03-04T03:29:21;101297.47;;;7.33;78.30
63204;BME280;49297;43.210;27.914;2023-03-04T03:31:46;101301.03;;;7.32;78.22
63204;BME280;49297;43.210;27.914;2023-03-04T03:34:12;101294.94;;;7.32;78.52
63204;BME280;49297;43.210;27.914;2023-03-04T03:36:38;101295.66;;;7.34;78.25
63204;BME280;49297;43.210;27.914;2023-03-04T03:39:04;101285.88;;;7.36;78.16
63204;BME280;49297;43.210;27.914;2023-03-04T03:41:29;101292.84;;;7.37;78.31
63204;BME280;49297;43.210;27.914;2023-03-04T03:43:55;101285.13;;;7.34;78.17
63204;BME280;49297;43.210;27.914;2023-03-04T03:46:21;101290.41;;;7.34;78.13
63204;BME280;49297;43.210;27.914;2023-03-04T03:48:47;101298.41;;;7.32;78.63
63204;BME280;49297;43.210;27.914;2023-03-04T03:51:12;101289.84;;;7.29;77.99
63204;BME280;49297;43.210;27.914;2023-03-04T03:53:38;101290.59;;;7.31;78.34
63204;BME280;49297;43.210;27.914;2023-03-04T03:56:04;101283.47;;;7.33;78.16
63204;BME280;49297;43.210;27.914;2023-03-04T03:58:30;101289.47;;;7.35;78.26
63204;BME280;49297;43.210;27.914;2023-03-04T04:00:56;101293.66;;;7.37;78.37
63204;BME280;49297;43.210;27.914;2023-03-04T04:03:22;101292.72;;;7.38;78.50
63204;BME280;49297;43.210;27.914;2023-03-04T04:05:48;101294.41;;;7.39;78.68
63204;BME280;49297;43.210;27.914;2023-03-04T04:08:14;101292.63;;;7.40;78.63
63204;BME280;49297;43.210;27.914;2023-03-04T04:10:41;101293.47;;;7.40;78.49
63204;BME280;49297;43.210;27.914;2023-03-04T04:13:08;101290.94;;;7.39;78.38
63204;BME280;49297;43.210;27.914;2023-03-04T04:15:34;101288.19;;;7.40;78.83
63204;BME280;49297;43.210;27.914;2023-03-04T04:17:59;101301.28;;;7.42;78.60
63204;BME280;49297;43.210;27.914;2023-03-04T04:20:25;101302.13;;;7.42;78.35
63204;BME280;49297;43.210;27.914;2023-03-04T04:22:51;101309.19;;;7.42;78.77
63204;BME280;49297;43.210;27.914;2023-03-04T04:25:17;101312.75;;;7.41;78.22
63204;BME280;49297;43.210;27.914;2023-03-04T04:27:42;101304.00;;;7.40;78.11
63204;BME280;49297;43.210;27.914;2023-03-04T04:30:09;101301.38;;;7.40;78.47
63204;BME280;49297;43.210;27.914;2023-03-04T04:32:35;101302.13;;;7.42;78.29
63204;BME280;49297;43.210;27.914;2023-03-04T04:35:01;101302.84;;;7.44;78.04
63204;BME280;49297;43.210;27.914;2023-03-04T04:37:26;101311.63;;;7.45;78.57
63204;BME280;49297;43.210;27.914;2023-03-04T04:39:52;101310.66;;;7.46;78.19
63204;BME280;49297;43.210;27.914;2023-03-04T04:42:20;101308.13;;;7.44;78.11
63204;BME280;49297;43.210;27.914;2023-03-04T04:44:47;101310.94;;;7.41;78.14
63204;BME280;49297;43.210;27.914;2023-03-04T04:47:13;101314.66;;;7.39;77.77
63204;BME280;49297;43.210;27.914;2023-03-04T04:49:40;101324.63;;;7.34;77.54
63204;BME280;49297;43.210;27.914;2023-03-04T04:52:05;101319.56;;;7.31;78.05
63204;BME280;49297;43.210;27.914;2023-03-04T04:54:31;101332.97;;;7.28;77.66
63204;BME280;49297;43.210;27.914;2023-03-04T04:56:57;101332.97;;;7.28;77.96
63204;BME280;49297;43.210;27.914;2023-03-04T04:59:23;101330.53;;;7.24;78.09
63204;BME280;49297;43.210;27.914;2023-03-04T05:01:48;101337.50;;;7.26;77.64
63204;BME280;49297;43.210;27.914;2023-03-04T05:04:14;101340.00;;;7.27;78.05
63204;BME280;49297;43.210;27.914;2023-03-04T05:06:40;101349.78;;;7.25;78.34
63204;BME280;49297;43.210;27.914;2023-03-04T05:09:06;101347.16;;;7.25;78.51
63204;BME280;49297;43.210;27.914;2023-03-04T05:11:32;101354.03;;;7.28;78.36
63204;BME280;49297;43.210;27.914;2023-03-04T05:13:58;101351.31;;;7.29;78.40
63204;BME280;49297;43.210;27.914;2023-03-04T05:16:24;101357.22;;;7.33;78.53
63204;BME280;49297;43.210;27.914;2023-03-04T05:18:49;101358.78;;;7.35;78.38
63204;BME280;49297;43.210;27.914;2023-03-04T05:21:15;101363.00;;;7.38;78.21
63204;BME280;49297;43.210;27.914;2023-03-04T05:23:42;101367.53;;;7.36;78.11
63204;BME280;49297;43.210;27.914;2023-03-04T05:26:12;101368.59;;;7.33;78.26
63204;BME280;49297;43.210;27.914;2023-03-04T05:28:38;101360.78;;;7.32;78.14
63204;BME280;49297;43.210;27.914;2023-03-04T05:31:04;101373.13;;;7.31;77.68
63204;BME280;49297;43.210;27.914;2023-03-04T05:33:30;101381.75;;;7.33;78.04
63204;BME280;49297;43.210;27.914;2023-03-04T05:35:56;101377.50;;;7.31;77.77
63204;BME280;49297;43.210;27.914;2023-03-04T05:38:23;101379.13;;;7.33;78.30
63204;BME280;49297;43.210;27.914;2023-03-04T05:40:56;101372.06;;;7.34;77.76
63204;BME280;49297;43.210;27.914;2023-03-04T05:43:23;101371.13;;;7.35;77.95
63204;BME280;49297;43.210;27.914;2023-03-04T05:45:49;101379.03;;;7.35;77.84
63204;BME280;49297;43.210;27.914;2023-03-04T05:48:15;101378.16;;;7.34;77.75
63204;BME280;49297;43.210;27.914;2023-03-04T05:50:41;101371.22;;;7.33;77.59
63204;BME280;49297;43.210;27.914;2023-03-04T05:53:06;101381.66;;;7.35;77.35
63204;BME280;49297;43.210;27.914;2023-03-04T05:55:32;101377.03;;;7.38;77.63
63204;BME280;49297;43.210;27.914;2023-03-04T05:57:58;101365.44;;;7.41;77.43
63204;BME280;49297;43.210;27.914;2023-03-04T06:00:24;101367.03;;;7.43;77.58
63204;BME280;49297;43.210;27.914;2023-03-04T06:02:50;101369.59;;;7.45;77.05
63204;BME280;49297;43.210;27.914;2023-03-04T06:05:16;101365.06;;;7.47;77.31
63204;BME280;49297;43.210;27.914;2023-03-04T06:07:43;101365.06;;;7.47;77.30
63204;BME280;49297;43.210;27.914;2023-03-04T06:10:10;101363.88;;;7.51;76.83
63204;BME280;49297;43.210;27.914;2023-03-04T06:12:36;101360.31;;;7.52;77.05
63204;BME280;49297;43.210;27.914;2023-03-04T06:15:02;101368.97;;;7.54;76.67
63204;BME280;49297;43.210;27.914;2023-03-04T06:17:29;101367.16;;;7.55;76.95
63204;BME280;49297;43.210;27.914;2023-03-04T06:19:54;101370.53;;;7.57;76.95
63204;BME280;49297;43.210;27.914;2023-03-04T06:22:20;101365.81;;;7.62;77.17
63204;BME280;49297;43.210;27.914;2023-03-04T06:24:46;101369.09;;;7.66;77.16
63204;BME280;49297;43.210;27.914;2023-03-04T06:27:12;101372.56;;;7.66;77.12
63204;BME280;49297;43.210;27.914;2023-03-04T06:29:38;101372.34;;;7.69;76.94
63204;BME280;49297;43.210;27.914;2023-03-04T06:32:04;101374.69;;;7.74;76.73
63204;BME280;49297;43.210;27.914;2023-03-04T06:34:31;101366.78;;;7.74;76.32
63204;BME280;49297;43.210;27.914;2023-03-04T06:36:58;101367.81;;;7.71;76.24
63204;BME280;49297;43.210;27.914;2023-03-04T06:39:24;101364.16;;;7.74;75.88
63204;BME280;49297;43.210;27.914;2023-03-04T06:41:49;101365.38;;;7.68;75.86
63204;BME280;49297;43.210;27.914;2023-03-04T06:44:16;101364.75;;;7.65;75.26
63204;BME280;49297;43.210;27.914;2023-03-04T06:46:42;101344.81;;;7.60;75.58
63204;BME280;49297;43.210;27.914;2023-03-04T06:49:07;101350.63;;;7.53;75.28
63204;BME280;49297;43.210;27.914;2023-03-04T06:51:33;101347.34;;;7.49;75.55
63204;BME280;49297;43.210;27.914;2023-03-04T06:53:59;101341.88;;;7.52;75.84
63204;BME280;49297;43.210;27.914;2023-03-04T06:56:25;101333.84;;;7.54;75.86
63204;BME280;49297;43.210;27.914;2023-03-04T06:58:51;101339.00;;;7.55;75.71
63204;BME280;49297;43.210;27.914;2023-03-04T07:01:20;101344.63;;;7.51;75.53
63204;BME280;49297;43.210;27.914;2023-03-04T07:03:47;101332.56;;;7.47;76.08
63204;BME280;49297;43.210;27.914;2023-03-04T07:06:15;101333.44;;;7.47;76.36
63204;BME280;49297;43.210;27.914;2023-03-04T07:08:42;101325.94;;;7.54;76.25
63204;BME280;49297;43.210;27.914;2023-03-04T07:11:08;101326.38;;;7.60;76.15
63204;BME280;49297;43.210;27.914;2023-03-04T07:13:35;101320.81;;;7.65;75.80
63204;BME280;49297;43.210;27.914;2023-03-04T07:16:14;101322.56;;;7.65;75.35
63204;BME280;49297;43.210;27.914;2023-03-04T07:18:40;101324.38;;;7.64;75.19
63204;BME280;49297;43.210;27.914;2023-03-04T07:21:06;101325.13;;;7.66;74.67
63204;BME280;49297;43.210;27.914;2023-03-04T07:23:34;101322.19;;;7.71;75.24
63204;BME280;49297;43.210;27.914;2023-03-04T07:26:00;101317.00;;;7.82;74.88
63204;BME280;49297;43.210;27.914;2023-03-04T07:28:26;101312.69;;;7.94;74.70
63204;BME280;49297;43.210;27.914;2023-03-04T07:30:52;101312.16;;;8.01;74.33
63204;BME280;49297;43.210;27.914;2023-03-04T07:33:18;101313.66;;;8.06;74.10
63204;BME280;49297;43.210;27.914;2023-03-04T07:35:44;101315.53;;;8.16;74.66
63204;BME280;49297;43.210;27.914;2023-03-04T07:38:09;101318.88;;;8.31;74.06
63204;BME280;49297;43.210;27.914;2023-03-04T07:40:36;101308.94;;;8.48;74.17
63204;BME280;49297;43.210;27.914;2023-03-04T07:43:02;101309.47;;;8.53;73.65
63204;BME280;49297;43.210;27.914;2023-03-04T07:45:28;101314.53;;;8.56;72.88
63204;BME280;49297;43.210;27.914;2023-03-04T07:47:54;101313.97;;;8.64;72.91
63204;BME280;49297;43.210;27.914;2023-03-04T07:50:20;101312.78;;;8.68;73.02
63204;BME280;49297;43.210;27.914;2023-03-04T07:52:47;101311.97;;;8.67;72.72
63204;BME280;49297;43.210;27.914;2023-03-04T07:55:15;101311.63;;;8.72;72.79
63204;BME280;49297;43.210;27.914;2023-03-04T07:57:43;101314.56;;;8.80;72.77
63204;BME280;49297;43.210;27.914;2023-03-04T08:00:11;101321.78;;;8.89;72.60
63204;BME280;49297;43.210;27.914;2023-03-04T08:02:37;101313.22;;;8.99;72.80
63204;BME280;49297;43.210;27.914;2023-03-04T08:05:03;101313.38;;;9.08;72.63
63204;BME280;49297;43.210;27.914;2023-03-04T08:07:29;101304.75;;;9.18;72.76
63204;BME280;49297;43.210;27.914;2023-03-04T08:09:55;101314.53;;;9.28;72.23
63204;BME280;49297;43.210;27.914;2023-03-04T08:12:21;101307.81;;;9.36;72.09
63204;BME280;49297;43.210;27.914;2023-03-04T08:14:49;101307.72;;;9.37;71.43
63204;BME280;49297;43.210;27.914;2023-03-04T08:17:15;101299.91;;;9.36;70.74
63204;BME280;49297;43.210;27.914;2023-03-04T08:22:22;101291.72;;;9.27;69.66
63204;BME280;49297;43.210;27.914;2023-03-04T08:24:48;101294.38;;;9.27;69.56
63204;BME280;49297;43.210;27.914;2023-03-04T08:27:14;101307.06;;;9.22;70.29
63204;BME280;49297;43.210;27.914;2023-03-04T08:29:40;101301.91;;;9.21;70.19
63204;BME280;49297;43.210;27.914;2023-03-04T08:32:06;101306.84;;;9.25;70.26
63204;BME280;49297;43.210;27.914;2023-03-04T08:34:32;101305.03;;;9.26;70.78
63204;BME280;49297;43.210;27.914;2023-03-04T08:37:10;101305.44;;;9.32;70.21
63204;BME280;49297;43.210;27.914;2023-03-04T08:39:35;101301.50;;;9.38;70.35
63204;BME280;49297;43.210;27.914;2023-03-04T08:42:02;101300.78;;;9.47;70.99
63204;BME280;49297;43.210;27.914;2023-03-04T08:44:28;101301.28;;;9.52;70.31
63204;BME280;49297;43.210;27.914;2023-03-04T08:46:53;101302.50;;;9.60;70.29
63204;BME280;49297;43.210;27.914;2023-03-04T08:49:19;101296.00;;;9.64;69.85
63204;BME280;49297;43.210;27.914;2023-03-04T08:51:46;101300.13;;;9.68;69.31
63204;BME280;49297;43.210;27.914;2023-03-04T08:54:12;101289.66;;;9.66;69.12
63204;BME280;49297;43.210;27.914;2023-03-04T08:56:39;101294.84;;;9.68;68.91
63204;BME280;49297;43.210;27.914;2023-03-04T08:59:05;101292.66;;;9.73;68.47
63204;BME280;49297;43.210;27.914;2023-03-04T09:01:31;101290.50;;;9.78;68.34
63204;BME280;49297;43.210;27.914;2023-03-04T09:03:56;101285.47;;;9.86;67.91
63204;BME280;49297;43.210;27.914;2023-03-04T09:06:22;101285.84;;;9.93;67.79
63204;BME280;49297;43.210;27.914;2023-03-04T09:08:48;101283.78;;;10.08;67.58
63204;BME280;49297;43.210;27.914;2023-03-04T09:11:14;101282.47;;;10.14;66.70
63204;BME280;49297;43.210;27.914;2023-03-04T09:13:40;101279.69;;;10.15;66.34
63204;BME280;49297;43.210;27.914;2023-03-04T09:16:13;101278.25;;;10.22;65.77
63204;BME280;49297;43.210;27.914;2023-03-04T09:18:40;101271.16;;;10.23;64.48
63204;BME280;49297;43.210;27.914;2023-03-04T09:21:06;101274.28;;;10.17;64.23
63204;BME280;49297;43.210;27.914;2023-03-04T09:23:33;101274.78;;;10.22;64.31
63204;BME280;49297;43.210;27.914;2023-03-04T09:25:59;101268.16;;;10.27;64.11
63204;BME280;49297;43.210;27.914;2023-03-04T09:28:25;101259.25;;;10.40;64.09
63204;BME280;49297;43.210;27.914;2023-03-04T09:30:51;101266.50;;;10.38;63.53
63204;BME280;49297;43.210;27.914;2023-03-04T09:33:17;101264.31;;;10.43;63.32
63204;BME280;49297;43.210;27.914;2023-03-04T09:35:43;101250.44;;;10.51;63.95
63204;BME280;49297;43.210;27.914;2023-03-04T09:38:09;101261.41;;;10.57;63.75
63204;BME280;49297;43.210;27.914;2023-03-04T09:40:46;101247.88;;;10.60;64.46
63204;BME280;49297;43.210;27.914;2023-03-04T09:43:25;101254.75;;;10.63;63.72
63204;BME280;49297;43.210;27.914;2023-03-04T09:46:00;101245.88;;;10.53;61.78
63204;BME280;49297;43.210;27.914;2023-03-04T09:48:32;101238.56;;;10.34;62.05
63204;BME280;49297;43.210;27.914;2023-03-04T09:51:10;101232.91;;;10.27;62.65
63204;BME280;49297;43.210;27.914;2023-03-04T09:56:38;101222.91;;;10.19;63.30
63204;BME280;49297;43.210;27.914;2023-03-04T09:59:24;101226.03;;;10.24;63.97
63204;BME280;49297;43.210;27.914;2023-03-04T10:01:57;101225.47;;;10.32;63.80
63204;BME280;49297;43.210;27.914;2023-03-04T10:04:52;101222.44;;;10.37;64.32
63204;BME280;49297;43.210;27.914;2023-03-04T10:07:27;101223.88;;;10.41;64.37
63204;BME280;49297;43.210;27.914;2023-03-04T10:10:06;101219.03;;;10.46;64.87
63204;BME280;49297;43.210;27.914;2023-03-04T10:12:38;101212.16;;;10.55;64.87
63204;BME280;49297;43.210;27.914;2023-03-04T10:15:31;101216.56;;;10.65;64.21
63204;BME280;49297;43.210;27.914;2023-03-04T10:18:12;101208.84;;;10.74;63.75
63204;BME280;49297;43.210;27.914;2023-03-04T10:21:05;101208.34;;;10.80;63.62
63204;BME280;49297;43.210;27.914;2023-03-04T10:23:33;101206.03;;;10.86;63.14
63204;BME280;49297;43.210;27.914;2023-03-04T10:26:01;101193.94;;;10.94;63.53
63204;BME280;49297;43.210;27.914;2023-03-04T10:28:35;101193.28;;;11.01;63.02
63204;BME280;49297;43.210;27.914;2023-03-04T10:33:37;101180.72;;;11.15;62.42
63204;BME280;49297;43.210;27.914;2023-03-04T10:36:22;101187.41;;;11.19;61.77
63204;BME280;49297;43.210;27.914;2023-03-04T10:39:42;101178.38;;;11.21;62.22
63204;BME280;49297;43.210;27.914;2023-03-04T10:41:45;101177.06;;;11.37;62.02
63204;BME280;49297;43.210;27.914;2023-03-04T10:44:17;101170.69;;;11.49;61.70
63204;BME280;49297;43.210;27.914;2023-03-04T10:46:46;101164.03;;;11.55;61.53
63204;BME280;49297;43.210;27.914;2023-03-04T10:49:14;101158.16;;;11.51;60.81
63204;BME280;49297;43.210;27.914;2023-03-04T10:51:45;101157.38;;;11.60;61.10
63204;BME280;49297;43.210;27.914;2023-03-04T10:54:25;101153.72;;;11.61;61.16
63204;BME280;49297;43.210;27.914;2023-03-04T10:57:17;101137.31;;;11.68;60.53
63204;BME280;49297;43.210;27.914;2023-03-04T11:00:07;101132.84;;;11.78;60.65
63204;BME280;49297;43.210;27.914;2023-03-04T11:02:46;101128.59;;;11.96;60.86
63204;BME280;49297;43.210;27.914;2023-03-04T11:05:21;101127.94;;;12.14;60.95
63204;BME280;49297;43.210;27.914;2023-03-04T11:07:53;101120.53;;;12.27;60.75
63204;BME280;49297;43.210;27.914;2023-03-04T11:10:30;101121.38;;;12.37;60.46
63204;BME280;49297;43.210;27.914;2023-03-04T11:13:16;101110.22;;;12.34;58.54
63204;BME280;49297;43.210;27.914;2023-03-04T11:16:03;101105.03;;;12.42;58.61
63204;BME280;49297;43.210;27.914;2023-03-04T11:21:05;101101.81;;;12.48;59.12
63204;BME280;49297;43.210;27.914;2023-03-04T11:23:44;101099.72;;;12.42;60.16
63204;BME280;49297;43.210;27.914;2023-03-04T11:26:16;101085.44;;;12.53;60.70
63204;BME280;49297;43.210;27.914;2023-03-04T11:28:55;101084.75;;;12.61;60.62
63204;BME280;49297;43.210;27.914;2023-03-04T11:31:27;101075.38;;;12.66;60.84
63204;BME280;49297;43.210;27.914;2023-03-04T11:34:01;101074.78;;;12.72;60.43
63204;BME280;49297;43.210;27.914;2023-03-04T11:39:20;101061.03;;;12.97;57.72
63204;BME280;49297;43.210;27.914;2023-03-04T11:41:54;101056.81;;;13.04;56.76
63204;BME280;49297;43.210;27.914;2023-03-04T11:44:23;101051.38;;;13.05;56.10
63204;BME280;49297;43.210;27.914;2023-03-04T11:47:12;101049.81;;;13.12;56.26
63204;BME280;49297;43.210;27.914;2023-03-04T11:49:53;101055.66;;;13.16;56.08
63204;BME280;49297;43.210;27.914;2023-03-04T12:01:13;101043.59;;;13.77;53.30
63204;BME280;49297;43.210;27.914;2023-03-04T12:04:04;101051.44;;;13.97;52.70
63204;BME280;49297;43.210;27.914;2023-03-04T12:17:37;101062.84;;;13.43;54.17
63204;BME280;49297;43.210;27.914;2023-03-04T12:20:26;101056.69;;;13.43;54.90
63204;BME280;49297;43.210;27.914;2023-03-04T12:31:36;101054.06;;;13.61;56.10
63204;BME280;49297;43.210;27.914;2023-03-04T12:37:37;101055.13;;;13.12;57.61
63204;BME280;49297;43.210;27.914;2023-03-04T12:54:50;101046.03;;;12.58;60.17
63204;BME280;49297;43.210;27.914;2023-03-04T12:57:19;101033.31;;;12.42;60.55
63204;BME280;49297;43.210;27.914;2023-03-04T13:03:13;101026.50;;;12.20;61.31
63204;BME280;49297;43.210;27.914;2023-03-04T13:06:05;101028.63;;;12.07;61.91
63204;BME280;49297;43.210;27.914;2023-03-04T13:17:35;101005.78;;;11.65;63.35
63204;BME280;49297;43.210;27.914;2023-03-04T13:22:59;101015.69;;;11.63;63.86
63204;BME280;49297;43.210;27.914;2023-03-04T13:30:41;100995.06;;;11.96;62.98
63204;BME280;49297;43.210;27.914;2023-03-04T13:38:55;100975.00;;;12.70;61.47
63204;BME280;49297;43.210;27.914;2023-03-04T13:41:23;100975.94;;;12.79;60.98
63204;BME280;49297;43.210;27.914;2023-03-04T13:44:01;100973.63;;;12.93;60.69
63204;BME280;49297;43.210;27.914;2023-03-04T13:46:30;100972.31;;;13.07;60.39
63204;BME280;49297;43.210;27.914;2023-03-04T13:49:06;100966.03;;;13.08;60.39
63204;BME280;49297;43.210;27.914;2023-03-04T13:51:37;100972.34;;;12.98;60.19
63204;BME280;49297;43.210;27.914;2023-03-04T13:54:20;100963.75;;;12.76;60.39
63204;BME280;49297;43.210;27.914;2023-03-04T13:59:40;100959.19;;;12.68;60.79
63204;BME280;49297;43.210;27.914;2023-03-04T14:02:14;100954.03;;;12.67;60.90
63204;BME280;49297;43.210;27.914;2023-03-04T14:04:44;100949.16;;;12.62;60.78
63204;BME280;49297;43.210;27.914;2023-03-04T14:07:28;100946.66;;;12.51;60.96
63204;BME280;49297;43.210;27.914;2023-03-04T14:12:24;100942.72;;;12.17;61.49
63204;BME280;49297;43.210;27.914;2023-03-04T14:14:53;100942.88;;;11.96;62.18
63204;BME280;49297;43.210;27.914;2023-03-04T14:17:28;100943.41;;;11.80;62.46
63204;BME280;49297;43.210;27.914;2023-03-04T14:19:56;100944.66;;;11.76;62.89
63204;BME280;49297;43.210;27.914;2023-03-04T14:25:01;100945.22;;;11.60;63.30
63204;BME280;49297;43.210;27.914;2023-03-04T14:27:34;100942.97;;;11.56;63.48
63204;BME280;49297;43.210;27.914;2023-03-04T14:30:04;100935.59;;;11.50;63.66
63204;BME280;49297;43.210;27.914;2023-03-04T14:32:31;100932.06;;;11.39;63.87
63204;BME280;49297;43.210;27.914;2023-03-04T14:35:01;100933.72;;;11.31;64.21